sensor_id;sensor_type;location;lat;lon;timestamp;temperature;humidity
40153;DHT22;26371;56.992;23.912;2022-08-19T00:03:20;23.00;99.90
40153;DHT22;26371;56.992;23.912;2022-08-19T00:05:49;22.90;99.90
40153;DHT22;26371;56.992;23.912;2022-08-19T00:12:48;23.10;99.90
40153;DHT22;26371;56.992;23.912;2022-08-19T00:32:43;22.80;99.90
40153;DHT22;26371;56.992;23.912;2022-08-19T00:35:12;22.70;99.90
40153;DHT22;26371;56.992;23.912;2022-08-19T00:45:40;22.80;99.90
40153;DHT22;26371;56.992;23.912;2022-08-19T00:48:46;22.70;99.90
40153;DHT22;26371;56.992;23.912;2022-08-19T00:51:15;22.70;99.90
40153;DHT22;26371;56.992;23.912;2022-08-19T00:53:43;22.70;99.90
40153;DHT22;26371;56.992;23.912;2022-08-19T01:16:30;22.40;99.90
40153;DHT22;26371;56.992;23.912;2022-08-19T01:23:45;22.30;99.90
40153;DHT22;26371;56.992;23.912;2022-08-19T01:26:17;22.30;99.90
40153;DHT22;26371;56.992;23.912;2022-08-19T01:33:02;22.20;99.90
40153;DHT22;26371;56.992;23.912;2022-08-19T01:35:33;22.20;99.90
40153;DHT22;26371;56.992;23.912;2022-08-19T01:41:51;22.20;99.90
40153;DHT22;26371;56.992;23.912;2022-08-19T01:44:22;22.10;99.90
40153;DHT22;26371;56.992;23.912;2022-08-19T01:50:29;22.10;99.90
40153;DHT22;26371;56.992;23.912;2022-08-19T01:57:23;22.00;99.90
40153;DHT22;26371;56.992;23.912;2022-08-19T01:59:53;22.00;99.90
40153;DHT22;26371;56.992;23.912;2022-08-19T02:05:26;22.00;99.90
40153;DHT22;26371;56.992;23.912;2022-08-19T02:12:20;22.00;99.90
40153;DHT22;26371;56.992;23.912;2022-08-19T02:14:51;22.00;99.90
40153;DHT22;26371;56.992;23.912;2022-08-19T02:17:50;22.00;99.90
40153;DHT22;26371;56.992;23.912;2022-08-19T02:24:52;22.00;99.90
40153;DHT22;26371;56.992;23.912;2022-08-19T02:31:09;22.00;99.90
40153;DHT22;26371;56.992;23.912;2022-08-19T02:38:22;22.00;99.90
40153;DHT22;26371;56.992;23.912;2022-08-19T02:54:04;22.00;99.90
40153;DHT22;26371;56.992;23.912;2022-08-19T03:00:56;21.90;99.90
40153;DHT22;26371;56.992;23.912;2022-08-19T03:03:59;21.90;99.90
40153;DHT22;26371;56.992;23.912;2022-08-19T03:06:31;21.90;99.90
40153;DHT22;26371;56.992;23.912;2022-08-19T03:09:35;21.90;99.90
40153;DHT22;26371;56.992;23.912;2022-08-19T03:12:06;21.90;99.90
40153;DHT22;26371;56.992;23.912;2022-08-19T03:14:36;21.90;99.90
40153;DHT22;26371;56.992;23.912;2022-08-19T03:26:05;21.90;99.90
40153;DHT22;26371;56.992;23.912;2022-08-19T03:45:17;21.90;99.90
40153;DHT22;26371;56.992;23.912;2022-08-19T04:00:34;21.90;99.90
40153;DHT22;26371;56.992;23.912;2022-08-19T04:11:19;22.10;99.90
40153;DHT22;26371;56.992;23.912;2022-08-19T04:14:10;22.10;99.90
40153;DHT22;26371;56.992;23.912;2022-08-19T04:32:51;22.40;99.90
40153;DHT22;26371;56.992;23.912;2022-08-19T04:35:21;22.50;99.90
40153;DHT22;26371;56.992;23.912;2022-08-19T04:41:03;22.50;99.90
40153;DHT22;26371;56.992;23.912;2022-08-19T04:43:49;22.60;99.90
40153;DHT22;26371;56.992;23.912;2022-08-19T04:46:18;22.60;99.90
40153;DHT22;26371;56.992;23.912;2022-08-19T04:53:53;22.70;99.90
40153;DHT22;26371;56.992;23.912;2022-08-19T04:56:23;22.70;99.90
40153;DHT22;26371;56.992;23.912;2022-08-19T04:59:21;22.80;99.90
40153;DHT22;26371;56.992;23.912;2022-08-19T05:01:50;22.80;99.90
40153;DHT22;26371;56.992;23.912;2022-08-19T05:08:13;22.90;99.90
40153;DHT22;26371;56.992;23.912;2022-08-19T05:11:28;22.90;99.90
40153;DHT22;26371;56.992;23.912;2022-08-19T05:13:57;22.90;99.90
40153;DHT22;26371;56.992;23.912;2022-08-19T05:24:09;23.10;99.90
40153;DHT22;26371;56.992;23.912;2022-08-19T05:26:42;23.20;99.90
40153;DHT22;26371;56.992;23.912;2022-08-19T05:29:21;23.20;99.90
40153;DHT22;26371;56.992;23.912;2022-08-19T05:41:57;23.40;99.90
40153;DHT22;26371;56.992;23.912;2022-08-19T05:44:29;23.60;99.90
40153;DHT22;26371;56.992;23.912;2022-08-19T05:46:59;23.60;99.90
40153;DHT22;26371;56.992;23.912;2022-08-19T05:49:29;23.70;99.90
40153;DHT22;26371;56.992;23.912;2022-08-19T05:52:00;23.80;99.90
40153;DHT22;26371;56.992;23.912;2022-08-19T05:54:30;23.90;99.90
40153;DHT22;26371;56.992;23.912;2022-08-19T06:05:00;24.20;99.90
40153;DHT22;26371;56.992;23.912;2022-08-19T06:12:13;24.20;99.90
40153;DHT22;26371;56.992;23.912;2022-08-19T06:14:45;24.20;99.90
40153;DHT22;26371;56.992;23.912;2022-08-19T06:17:33;24.20;99.90
40153;DHT22;26371;56.992;23.912;2022-08-19T06:20:05;24.20;99.90
40153;DHT22;26371;56.992;23.912;2022-08-19T06:22:38;24.20;99.90
40153;DHT22;26371;56.992;23.912;2022-08-19T06:25:09;24.30;99.90
40153;DHT22;26371;56.992;23.912;2022-08-19T06:27:42;24.30;99.90
40153;DHT22;26371;56.992;23.912;2022-08-19T06:30:31;24.30;99.90
40153;DHT22;26371;56.992;23.912;2022-08-19T06:33:00;24.40;99.90
40153;DHT22;26371;56.992;23.912;2022-08-19T06:35:31;24.40;99.90
40153;DHT22;26371;56.992;23.912;2022-08-19T06:38:02;24.40;99.90
40153;DHT22;26371;56.992;23.912;2022-08-19T06:40:32;24.50;99.90
40153;DHT22;26371;56.992;23.912;2022-08-19T06:43:02;24.50;99.90
40153;DHT22;26371;56.992;23.912;2022-08-19T06:45:37;24.50;99.90
40153;DHT22;26371;56.992;23.912;2022-08-19T06:52:33;24.70;99.90
40153;DHT22;26371;56.992;23.912;2022-08-19T06:55:05;24.70;99.90
40153;DHT22;26371;56.992;23.912;2022-08-19T07:01:03;24.80;99.90
40153;DHT22;26371;56.992;23.912;2022-08-19T07:03:36;24.90;99.90
40153;DHT22;26371;56.992;23.912;2022-08-19T07:06:15;25.00;99.90
40153;DHT22;26371;56.992;23.912;2022-08-19T07:09:08;25.00;99.90
40153;DHT22;26371;56.992;23.912;2022-08-19T07:11:38;25.10;99.90
40153;DHT22;26371;56.992;23.912;2022-08-19T07:21:54;25.40;99.90
40153;DHT22;26371;56.992;23.912;2022-08-19T07:24:52;25.50;99.90
40153;DHT22;26371;56.992;23.912;2022-08-19T07:31:45;25.50;99.90
40153;DHT22;26371;56.992;23.912;2022-08-19T07:34:18;25.70;99.90
40153;DHT22;26371;56.992;23.912;2022-08-19T07:36:53;25.80;99.90
40153;DHT22;26371;56.992;23.912;2022-08-19T07:44:45;26.00;99.90
40153;DHT22;26371;56.992;23.912;2022-08-19T07:47:17;26.20;99.80
40153;DHT22;26371;56.992;23.912;2022-08-19T07:50:10;26.40;99.70
40153;DHT22;26371;56.992;23.912;2022-08-19T07:53:05;26.50;99.70
40153;DHT22;26371;56.992;23.912;2022-08-19T08:04:32;26.90;99.10
40153;DHT22;26371;56.992;23.912;2022-08-19T08:11:45;26.90;98.80
40153;DHT22;26371;56.992;23.912;2022-08-19T08:14:16;26.90;99.10
40153;DHT22;26371;56.992;23.912;2022-08-19T08:20:44;26.90;98.40
40153;DHT22;26371;56.992;23.912;2022-08-19T08:23:13;26.90;98.80
40153;DHT22;26371;56.992;23.912;2022-08-19T08:25:54;26.90;99.00
40153;DHT22;26371;56.992;23.912;2022-08-19T08:32:57;27.00;98.50
40153;DHT22;26371;56.992;23.912;2022-08-19T08:35:29;27.00;98.60
40153;DHT22;26371;56.992;23.912;2022-08-19T08:38:03;27.00;98.80
40153;DHT22;26371;56.992;23.912;2022-08-19T08:40:38;27.10;98.70
40153;DHT22;26371;56.992;23.912;2022-08-19T08:43:21;27.20;98.90
40153;DHT22;26371;56.992;23.912;2022-08-19T08:46:01;27.30;99.00
40153;DHT22;26371;56.992;23.912;2022-08-19T08:49:04;27.40;99.00
40153;DHT22;26371;56.992;23.912;2022-08-19T08:51:45;27.50;99.00
40153;DHT22;26371;56.992;23.912;2022-08-19T08:54:34;27.60;99.10
40153;DHT22;26371;56.992;23.912;2022-08-19T08:57:39;27.70;98.70
40153;DHT22;26371;56.992;23.912;2022-08-19T09:00:18;27.70;98.40
40153;DHT22;26371;56.992;23.912;2022-08-19T09:02:48;27.90;98.30
40153;DHT22;26371;56.992;23.912;2022-08-19T09:05:40;27.90;98.40
40153;DHT22;26371;56.992;23.912;2022-08-19T09:08:27;27.90;98.30
40153;DHT22;26371;56.992;23.912;2022-08-19T09:11:06;28.00;98.20
40153;DHT22;26371;56.992;23.912;2022-08-19T09:13:49;28.10;98.10
40153;DHT22;26371;56.992;23.912;2022-08-19T09:16:29;28.20;97.90
40153;DHT22;26371;56.992;23.912;2022-08-19T09:19:26;28.20;97.80
40153;DHT22;26371;56.992;23.912;2022-08-19T09:21:55;28.30;97.70
40153;DHT22;26371;56.992;23.912;2022-08-19T09:24:30;28.30;97.60
40153;DHT22;26371;56.992;23.912;2022-08-19T09:27:01;28.30;97.50
40153;DHT22;26371;56.992;23.912;2022-08-19T09:29:44;28.40;97.50
40153;DHT22;26371;56.992;23.912;2022-08-19T09:32:16;28.40;96.50
40153;DHT22;26371;56.992;23.912;2022-08-19T09:34:53;28.50;96.60
40153;DHT22;26371;56.992;23.912;2022-08-19T09:37:28;28.40;96.40
40153;DHT22;26371;56.992;23.912;2022-08-19T09:39:59;28.40;96.60
40153;DHT22;26371;56.992;23.912;2022-08-19T09:42:30;28.50;96.50
40153;DHT22;26371;56.992;23.912;2022-08-19T09:47:43;28.10;99.90
40153;DHT22;26371;56.992;23.912;2022-08-19T09:50:22;28.80;99.50
40153;DHT22;26371;56.992;23.912;2022-08-19T09:52:52;28.80;99.10
40153;DHT22;26371;56.992;23.912;2022-08-19T09:55:32;28.80;96.50
40153;DHT22;26371;56.992;23.912;2022-08-19T09:58:07;29.00;96.10
40153;DHT22;26371;56.992;23.912;2022-08-19T10:00:38;29.20;96.00
40153;DHT22;26371;56.992;23.912;2022-08-19T10:03:07;29.30;95.80
40153;DHT22;26371;56.992;23.912;2022-08-19T10:05:37;29.30;95.20
40153;DHT22;26371;56.992;23.912;2022-08-19T10:08:30;29.30;94.90
40153;DHT22;26371;56.992;23.912;2022-08-19T10:11:01;29.30;95.40
40153;DHT22;26371;56.992;23.912;2022-08-19T10:13:53;29.30;95.10
40153;DHT22;26371;56.992;23.912;2022-08-19T10:16:50;29.40;94.90
40153;DHT22;26371;56.992;23.912;2022-08-19T10:19:20;29.40;95.10
40153;DHT22;26371;56.992;23.912;2022-08-19T10:21:53;29.40;94.70
40153;DHT22;26371;56.992;23.912;2022-08-19T10:24:27;29.50;95.00
40153;DHT22;26371;56.992;23.912;2022-08-19T10:26:56;29.50;94.80
40153;DHT22;26371;56.992;23.912;2022-08-19T10:29:32;29.60;94.50
40153;DHT22;26371;56.992;23.912;2022-08-19T10:32:04;29.60;94.00
40153;DHT22;26371;56.992;23.912;2022-08-19T10:34:41;29.70;93.60
40153;DHT22;26371;56.992;23.912;2022-08-19T10:37:15;29.80;94.10
40153;DHT22;26371;56.992;23.912;2022-08-19T10:40:01;29.80;94.00
40153;DHT22;26371;56.992;23.912;2022-08-19T10:42:31;29.70;94.20
40153;DHT22;26371;56.992;23.912;2022-08-19T10:45:04;29.70;93.80
40153;DHT22;26371;56.992;23.912;2022-08-19T10:48:10;29.70;93.60
40153;DHT22;26371;56.992;23.912;2022-08-19T10:50:48;29.70;93.70
40153;DHT22;26371;56.992;23.912;2022-08-19T10:53:35;29.70;92.90
40153;DHT22;26371;56.992;23.912;2022-08-19T10:56:04;29.80;92.70
40153;DHT22;26371;56.992;23.912;2022-08-19T10:58:51;29.90;92.70
40153;DHT22;26371;56.992;23.912;2022-08-19T11:01:21;29.90;92.40
40153;DHT22;26371;56.992;23.912;2022-08-19T11:04:19;30.00;92.30
40153;DHT22;26371;56.992;23.912;2022-08-19T11:07:10;30.00;92.20
40153;DHT22;26371;56.992;23.912;2022-08-19T11:09:41;30.00;92.60
40153;DHT22;26371;56.992;23.912;2022-08-19T11:12:10;30.00;92.20
40153;DHT22;26371;56.992;23.912;2022-08-19T11:14:41;30.00;92.50
40153;DHT22;26371;56.992;23.912;2022-08-19T11:17:40;30.20;92.50
40153;DHT22;26371;56.992;23.912;2022-08-19T11:20:12;30.30;91.60
40153;DHT22;26371;56.992;23.912;2022-08-19T11:22:42;30.50;91.80
40153;DHT22;26371;56.992;23.912;2022-08-19T11:25:14;30.60;91.50
40153;DHT22;26371;56.992;23.912;2022-08-19T11:32:29;30.80;90.80
40153;DHT22;26371;56.992;23.912;2022-08-19T11:35:01;30.90;91.40
40153;DHT22;26371;56.992;23.912;2022-08-19T11:45:32;31.10;89.70
40153;DHT22;26371;56.992;23.912;2022-08-19T11:52:46;31.20;89.70
40153;DHT22;26371;56.992;23.912;2022-08-19T11:55:23;31.30;89.80
40153;DHT22;26371;56.992;23.912;2022-08-19T11:58:11;31.30;89.40
40153;DHT22;26371;56.992;23.912;2022-08-19T12:05:41;31.30;89.20
40153;DHT22;26371;56.992;23.912;2022-08-19T12:08:13;31.40;90.10
40153;DHT22;26371;56.992;23.912;2022-08-19T12:10:43;31.40;90.00
40153;DHT22;26371;56.992;23.912;2022-08-19T12:16:30;31.70;90.20
40153;DHT22;26371;56.992;23.912;2022-08-19T12:19:01;31.70;90.10
40153;DHT22;26371;56.992;23.912;2022-08-19T12:25:07;31.70;88.80
40153;DHT22;26371;56.992;23.912;2022-08-19T12:32:09;31.60;89.60
40153;DHT22;26371;56.992;23.912;2022-08-19T12:34:39;31.70;90.10
40153;DHT22;26371;56.992;23.912;2022-08-19T12:37:07;31.70;89.80
40153;DHT22;26371;56.992;23.912;2022-08-19T12:39:38;31.70;90.00
40153;DHT22;26371;56.992;23.912;2022-08-19T12:42:11;31.70;90.40
40153;DHT22;26371;56.992;23.912;2022-08-19T12:49:56;31.80;90.40
40153;DHT22;26371;56.992;23.912;2022-08-19T12:52:25;31.90;90.20
40153;DHT22;26371;56.992;23.912;2022-08-19T12:54:56;31.90;90.70
40153;DHT22;26371;56.992;23.912;2022-08-19T12:57:51;31.90;90.70
40153;DHT22;26371;56.992;23.912;2022-08-19T13:00:21;31.90;90.30
40153;DHT22;26371;56.992;23.912;2022-08-19T13:02:51;31.80;89.80
40153;DHT22;26371;56.992;23.912;2022-08-19T13:05:26;31.80;89.80
40153;DHT22;26371;56.992;23.912;2022-08-19T13:08:12;31.70;90.20
40153;DHT22;26371;56.992;23.912;2022-08-19T13:10:41;31.70;90.90
40153;DHT22;26371;56.992;23.912;2022-08-19T13:13:11;31.70;90.50
40153;DHT22;26371;56.992;23.912;2022-08-19T13:15:41;31.70;90.30
40153;DHT22;26371;56.992;23.912;2022-08-19T13:18:26;31.60;90.10
40153;DHT22;26371;56.992;23.912;2022-08-19T13:20:55;31.50;90.10
40153;DHT22;26371;56.992;23.912;2022-08-19T13:23:24;31.30;90.50
40153;DHT22;26371;56.992;23.912;2022-08-19T13:34:27;31.20;90.80
40153;DHT22;26371;56.992;23.912;2022-08-19T13:37:17;31.20;91.10
40153;DHT22;26371;56.992;23.912;2022-08-19T13:44:19;31.10;90.80
40153;DHT22;26371;56.992;23.912;2022-08-19T13:46:49;31.00;90.70
40153;DHT22;26371;56.992;23.912;2022-08-19T13:57:21;31.10;90.60
40153;DHT22;26371;56.992;23.912;2022-08-19T14:04:23;31.00;90.40
40153;DHT22;26371;56.992;23.912;2022-08-19T14:11:45;30.80;90.20
40153;DHT22;26371;56.992;23.912;2022-08-19T14:14:16;30.70;90.00
40153;DHT22;26371;56.992;23.912;2022-08-19T14:16:47;30.70;90.00
40153;DHT22;26371;56.992;23.912;2022-08-19T14:19:48;30.60;90.00
40153;DHT22;26371;56.992;23.912;2022-08-19T14:22:24;30.70;90.50
40153;DHT22;26371;56.992;23.912;2022-08-19T14:24:53;30.70;90.10
40153;DHT22;26371;56.992;23.912;2022-08-19T14:30:24;30.80;89.40
40153;DHT22;26371;56.992;23.912;2022-08-19T14:32:55;30.90;89.30
40153;DHT22;26371;56.992;23.912;2022-08-19T14:35:26;30.90;88.70
40153;DHT22;26371;56.992;23.912;2022-08-19T14:38:17;30.90;88.10
40153;DHT22;26371;56.992;23.912;2022-08-19T14:41:07;31.00;86.60
40153;DHT22;26371;56.992;23.912;2022-08-19T14:43:36;31.10;88.10
40153;DHT22;26371;56.992;23.912;2022-08-19T14:46:07;31.10;86.50
40153;DHT22;26371;56.992;23.912;2022-08-19T14:48:48;31.10;86.90
40153;DHT22;26371;56.992;23.912;2022-08-19T14:51:20;31.20;86.10
40153;DHT22;26371;56.992;23.912;2022-08-19T14:53:51;31.30;86.40
40153;DHT22;26371;56.992;23.912;2022-08-19T14:56:24;31.40;85.80
40153;DHT22;26371;56.992;23.912;2022-08-19T14:59:09;31.40;86.30
40153;DHT22;26371;56.992;23.912;2022-08-19T15:01:40;31.40;86.50
40153;DHT22;26371;56.992;23.912;2022-08-19T15:04:09;31.30;86.20
40153;DHT22;26371;56.992;23.912;2022-08-19T15:06:42;31.30;86.50
40153;DHT22;26371;56.992;23.912;2022-08-19T15:09:39;31.30;86.60
40153;DHT22;26371;56.992;23.912;2022-08-19T15:12:09;31.30;85.80
40153;DHT22;26371;56.992;23.912;2022-08-19T15:14:51;31.30;86.60
40153;DHT22;26371;56.992;23.912;2022-08-19T15:17:25;31.30;86.50
40153;DHT22;26371;56.992;23.912;2022-08-19T15:20:15;31.30;86.30
40153;DHT22;26371;56.992;23.912;2022-08-19T15:22:45;31.30;86.00
40153;DHT22;26371;56.992;23.912;2022-08-19T15:29:47;31.50;85.80
40153;DHT22;26371;56.992;23.912;2022-08-19T15:32:24;31.50;85.70
40153;DHT22;26371;56.992;23.912;2022-08-19T15:43:26;31.40;85.80
40153;DHT22;26371;56.992;23.912;2022-08-19T15:45:56;31.20;85.40
40153;DHT22;26371;56.992;23.912;2022-08-19T16:05:08;30.10;87.50
40153;DHT22;26371;56.992;23.912;2022-08-19T16:11:31;29.80;87.90
40153;DHT22;26371;56.992;23.912;2022-08-19T16:14:06;29.70;88.70
40153;DHT22;26371;56.992;23.912;2022-08-19T16:17:08;29.60;88.80
40153;DHT22;26371;56.992;23.912;2022-08-19T16:24:19;29.60;99.90
40153;DHT22;26371;56.992;23.912;2022-08-19T16:27:17;29.40;90.00
40153;DHT22;26371;56.992;23.912;2022-08-19T16:29:49;29.30;89.80
40153;DHT22;26371;56.992;23.912;2022-08-19T16:32:21;29.30;89.90
40153;DHT22;26371;56.992;23.912;2022-08-19T16:34:50;29.20;89.80
40153;DHT22;26371;56.992;23.912;2022-08-19T16:37:48;29.10;89.30
40153;DHT22;26371;56.992;23.912;2022-08-19T16:40:18;29.00;89.50
40153;DHT22;26371;56.992;23.912;2022-08-19T16:42:48;28.90;90.10
40153;DHT22;26371;56.992;23.912;2022-08-19T16:45:18;28.80;90.10
40153;DHT22;26371;56.992;23.912;2022-08-19T16:47:52;28.70;90.10
40153;DHT22;26371;56.992;23.912;2022-08-19T16:50:20;28.70;89.90
40153;DHT22;26371;56.992;23.912;2022-08-19T17:01:33;28.40;90.40
40153;DHT22;26371;56.992;23.912;2022-08-19T17:04:03;28.30;90.40
40153;DHT22;26371;56.992;23.912;2022-08-19T17:06:32;28.20;90.30
40153;DHT22;26371;56.992;23.912;2022-08-19T17:09:10;28.20;90.50
40153;DHT22;26371;56.992;23.912;2022-08-19T17:11:52;28.10;90.30
40153;DHT22;26371;56.992;23.912;2022-08-19T17:14:20;28.10;90.10
40153;DHT22;26371;56.992;23.912;2022-08-19T17:16:52;28.00;90.20
40153;DHT22;26371;56.992;23.912;2022-08-19T17:19:21;28.00;90.50
40153;DHT22;26371;56.992;23.912;2022-08-19T17:21:50;27.90;90.50
40153;DHT22;26371;56.992;23.912;2022-08-19T17:24:19;27.90;99.20
40153;DHT22;26371;56.992;23.912;2022-08-19T17:38:29;27.70;99.90
40153;DHT22;26371;56.992;23.912;2022-08-19T17:40:58;27.50;90.90
40153;DHT22;26371;56.992;23.912;2022-08-19T17:43:32;27.50;91.00
40153;DHT22;26371;56.992;23.912;2022-08-19T17:46:11;27.40;91.10
40153;DHT22;26371;56.992;23.912;2022-08-19T17:48:44;27.40;91.30
40153;DHT22;26371;56.992;23.912;2022-08-19T17:51:23;27.30;91.50
40153;DHT22;26371;56.992;23.912;2022-08-19T17:53:55;27.20;91.20
40153;DHT22;26371;56.992;23.912;2022-08-19T17:56:24;27.20;91.50
40153;DHT22;26371;56.992;23.912;2022-08-19T17:59:01;27.10;91.60
40153;DHT22;26371;56.992;23.912;2022-08-19T18:01:34;27.10;91.80
40153;DHT22;26371;56.992;23.912;2022-08-19T18:11:05;26.70;92.40
40153;DHT22;26371;56.992;23.912;2022-08-19T18:13:35;26.60;92.60
40153;DHT22;26371;56.992;23.912;2022-08-19T18:16:05;26.60;96.90
40153;DHT22;26371;56.992;23.912;2022-08-19T18:19:08;26.50;93.70
40153;DHT22;26371;56.992;23.912;2022-08-19T18:24:20;26.30;93.30
40153;DHT22;26371;56.992;23.912;2022-08-19T18:34:54;26.10;94.20
40153;DHT22;26371;56.992;23.912;2022-08-19T18:49:40;25.90;93.90
40153;DHT22;26371;56.992;23.912;2022-08-19T18:54:40;25.90;93.60
40153;DHT22;26371;56.992;23.912;2022-08-19T19:02:04;25.90;93.90
40153;DHT22;26371;56.992;23.912;2022-08-19T19:05:11;25.90;93.80
40153;DHT22;26371;56.992;23.912;2022-08-19T19:12:08;25.80;93.60
40153;DHT22;26371;56.992;23.912;2022-08-19T19:14:39;25.80;93.60
40153;DHT22;26371;56.992;23.912;2022-08-19T19:17:17;25.80;93.60
40153;DHT22;26371;56.992;23.912;2022-08-19T19:19:52;25.70;93.60
40153;DHT22;26371;56.992;23.912;2022-08-19T19:22:22;25.70;93.60
40153;DHT22;26371;56.992;23.912;2022-08-19T19:24:51;25.70;93.40
40153;DHT22;26371;56.992;23.912;2022-08-19T19:31:47;25.70;93.40
40153;DHT22;26371;56.992;23.912;2022-08-19T19:34:21;25.60;93.70
40153;DHT22;26371;56.992;23.912;2022-08-19T19:48:54;25.40;93.50
40153;DHT22;26371;56.992;23.912;2022-08-19T19:51:27;25.40;93.90
40153;DHT22;26371;56.992;23.912;2022-08-19T20:00:25;25.30;94.20
40153;DHT22;26371;56.992;23.912;2022-08-19T20:12:25;25.10;94.50
40153;DHT22;26371;56.992;23.912;2022-08-19T20:14:54;25.10;94.70
40153;DHT22;26371;56.992;23.912;2022-08-19T20:17:29;25.00;94.80
40153;DHT22;26371;56.992;23.912;2022-08-19T20:19:59;25.00;94.90
40153;DHT22;26371;56.992;23.912;2022-08-19T20:30:30;24.80;95.10
40153;DHT22;26371;56.992;23.912;2022-08-19T20:33:00;24.80;95.20
40153;DHT22;26371;56.992;23.912;2022-08-19T20:44:38;24.70;95.50
40153;DHT22;26371;56.992;23.912;2022-08-19T20:47:10;24.70;95.60
40153;DHT22;26371;56.992;23.912;2022-08-19T20:49:39;24.60;95.80
40153;DHT22;26371;56.992;23.912;2022-08-19T20:52:08;24.60;95.60
40153;DHT22;26371;56.992;23.912;2022-08-19T20:54:38;24.50;95.70
40153;DHT22;26371;56.992;23.912;2022-08-19T20:57:19;24.50;95.60
40153;DHT22;26371;56.992;23.912;2022-08-19T20:59:49;24.50;95.70
40153;DHT22;26371;56.992;23.912;2022-08-19T21:07:01;24.50;95.70
40153;DHT22;26371;56.992;23.912;2022-08-19T21:09:39;24.40;95.90
40153;DHT22;26371;56.992;23.912;2022-08-19T21:12:11;24.40;96.00
40153;DHT22;26371;56.992;23.912;2022-08-19T21:14:42;24.30;95.90
40153;DHT22;26371;56.992;23.912;2022-08-19T21:17:11;24.30;96.10
40153;DHT22;26371;56.992;23.912;2022-08-19T21:19:40;24.20;96.20
40153;DHT22;26371;56.992;23.912;2022-08-19T21:22:10;24.20;96.30
40153;DHT22;26371;56.992;23.912;2022-08-19T21:24:39;24.20;96.40
40153;DHT22;26371;56.992;23.912;2022-08-19T21:27:11;24.10;96.50
40153;DHT22;26371;56.992;23.912;2022-08-19T21:29:41;24.00;96.40
40153;DHT22;26371;56.992;23.912;2022-08-19T21:32:10;24.00;96.50
40153;DHT22;26371;56.992;23.912;2022-08-19T21:34:41;24.00;96.70
40153;DHT22;26371;56.992;23.912;2022-08-19T21:37:21;24.00;96.60
40153;DHT22;26371;56.992;23.912;2022-08-19T21:39:52;24.00;96.70
40153;DHT22;26371;56.992;23.912;2022-08-19T21:42:23;24.00;96.70
40153;DHT22;26371;56.992;23.912;2022-08-19T21:44:54;23.90;96.70
40153;DHT22;26371;56.992;23.912;2022-08-19T21:47:54;23.90;96.70
40153;DHT22;26371;56.992;23.912;2022-08-19T22:01:09;23.70;97.00
40153;DHT22;26371;56.992;23.912;2022-08-19T22:11:21;23.70;97.00
40153;DHT22;26371;56.992;23.912;2022-08-19T22:18:24;23.60;97.50
40153;DHT22;26371;56.992;23.912;2022-08-19T22:20:55;23.50;97.60
40153;DHT22;26371;56.992;23.912;2022-08-19T22:23:24;23.50;97.70
40153;DHT22;26371;56.992;23.912;2022-08-19T22:35:01;23.30;97.90
40153;DHT22;26371;56.992;23.912;2022-08-19T22:41:05;23.20;98.00
40153;DHT22;26371;56.992;23.912;2022-08-19T22:43:38;23.20;98.20
40153;DHT22;26371;56.992;23.912;2022-08-19T22:46:07;23.10;98.10
40153;DHT22;26371;56.992;23.912;2022-08-19T22:48:45;23.10;98.10
40153;DHT22;26371;56.992;23.912;2022-08-19T22:56:05;23.00;98.30
40153;DHT22;26371;56.992;23.912;2022-08-19T23:02:30;23.00;98.40
40153;DHT22;26371;56.992;23.912;2022-08-19T23:08:26;22.90;98.50
40153;DHT22;26371;56.992;23.912;2022-08-19T23:10:55;22.80;98.80
40153;DHT22;26371;56.992;23.912;2022-08-19T23:13:26;22.90;99.90
40153;DHT22;26371;56.992;23.912;2022-08-19T23:15:58;22.70;98.70
40153;DHT22;26371;56.992;23.912;2022-08-19T23:18:27;22.70;98.80
40153;DHT22;26371;56.992;23.912;2022-08-19T23:20:56;22.70;98.90
40153;DHT22;26371;56.992;23.912;2022-08-19T23:23:27;22.70;98.70
40153;DHT22;26371;56.992;23.912;2022-08-19T23:25:56;22.70;98.60
40153;DHT22;26371;56.992;23.912;2022-08-19T23:36:35;22.60;98.70
40153;DHT22;26371;56.992;23.912;2022-08-19T23:39:04;22.60;98.80
40153;DHT22;26371;56.992;23.912;2022-08-19T23:45:07;22.50;99.10
40153;DHT22;26371;56.992;23.912;2022-08-19T23:47:44;22.50;98.90
40153;DHT22;26371;56.992;23.912;2022-08-19T23:50:14;22.50;99.10
40153;DHT22;26371;56.992;23.912;2022-08-19T23:52:47;22.40;99.20
40153;DHT22;26371;56.992;23.912;2022-08-19T23:55:33;22.40;99.20
40153;DHT22;26371;56.992;23.912;2022-08-19T23:58:13;22.40;99.00
